sensor_id;sensor_type;location;lat;lon;timestamp;temperature;humidity
29353;DHT22;16344;50.364;8.944;2023-04-29T00:01:06;13.50;1.00
29353;DHT22;16344;50.364;8.944;2023-04-29T00:03:31;13.50;1.00
29353;DHT22;16344;50.364;8.944;2023-04-29T00:05:57;13.50;1.00
29353;DHT22;16344;50.364;8.944;2023-04-29T00:08:23;13.40;1.00
29353;DHT22;16344;50.364;8.944;2023-04-29T00:10:49;13.40;1.00
29353;DHT22;16344;50.364;8.944;2023-04-29T00:13:15;13.50;1.00
29353;DHT22;16344;50.364;8.944;2023-04-29T00:15:41;13.50;1.00
29353;DHT22;16344;50.364;8.944;2023-04-29T00:18:07;13.60;1.00
29353;DHT22;16344;50.364;8.944;2023-04-29T00:20:34;13.50;1.00
29353;DHT22;16344;50.364;8.944;2023-04-29T00:22:59;13.60;1.00
29353;DHT22;16344;50.364;8.944;2023-04-29T00:25:25;13.70;1.00
29353;DHT22;16344;50.364;8.944;2023-04-29T00:27:51;13.60;1.00
29353;DHT22;16344;50.364;8.944;2023-04-29T00:30:16;13.60;1.00
29353;DHT22;16344;50.364;8.944;2023-04-29T00:32:42;13.60;1.00
29353;DHT22;16344;50.364;8.944;2023-04-29T00:35:09;13.60;1.00
29353;DHT22;16344;50.364;8.944;2023-04-29T00:37:35;13.60;1.00
29353;DHT22;16344;50.364;8.944;2023-04-29T00:40:00;13.60;1.00
29353;DHT22;16344;50.364;8.944;2023-04-29T00:42:26;13.70;1.00
29353;DHT22;16344;50.364;8.944;2023-04-29T00:44:52;13.80;1.00
29353;DHT22;16344;50.364;8.944;2023-04-29T00:47:17;13.70;1.00
29353;DHT22;16344;50.364;8.944;2023-04-29T00:49:43;13.70;1.00
29353;DHT22;16344;50.364;8.944;2023-04-29T00:52:10;13.70;1.00
29353;DHT22;16344;50.364;8.944;2023-04-29T00:54:36;13.70;1.00
29353;DHT22;16344;50.364;8.944;2023-04-29T00:57:03;13.70;1.00
29353;DHT22;16344;50.364;8.944;2023-04-29T00:59:31;13.70;1.00
29353;DHT22;16344;50.364;8.944;2023-04-29T01:02:01;13.70;1.00
29353;DHT22;16344;50.364;8.944;2023-04-29T01:04:28;13.70;1.00
29353;DHT22;16344;50.364;8.944;2023-04-29T01:07:13;13.60;1.00
29353;DHT22;16344;50.364;8.944;2023-04-29T01:12:27;13.60;1.00
29353;DHT22;16344;50.364;8.944;2023-04-29T01:17:30;13.60;1.00
29353;DHT22;16344;50.364;8.944;2023-04-29T01:19:58;13.70;1.00
29353;DHT22;16344;50.364;8.944;2023-04-29T01:22:25;13.70;1.00
29353;DHT22;16344;50.364;8.944;2023-04-29T01:24:50;13.70;1.00
29353;DHT22;16344;50.364;8.944;2023-04-29T01:29:59;13.60;1.00
29353;DHT22;16344;50.364;8.944;2023-04-29T01:32:51;13.60;1.00
29353;DHT22;16344;50.364;8.944;2023-04-29T01:35:38;13.50;1.00
29353;DHT22;16344;50.364;8.944;2023-04-29T01:38:16;13.50;1.00
29353;DHT22;16344;50.364;8.944;2023-04-29T01:40:52;13.50;1.00
29353;DHT22;16344;50.364;8.944;2023-04-29T01:43:27;13.40;2.60
29353;DHT22;16344;50.364;8.944;2023-04-29T01:45:55;13.40;5.30
29353;DHT22;16344;50.364;8.944;2023-04-29T01:48:23;13.30;8.80
29353;DHT22;16344;50.364;8.944;2023-04-29T01:50:49;13.30;14.10
29353;DHT22;16344;50.364;8.944;2023-04-29T01:53:15;13.20;10.00
29353;DHT22;16344;50.364;8.944;2023-04-29T01:55:40;13.30;16.40
29353;DHT22;16344;50.364;8.944;2023-04-29T01:58:08;13.30;12.40
29353;DHT22;16344;50.364;8.944;2023-04-29T02:00:34;13.30;11.50
29353;DHT22;16344;50.364;8.944;2023-04-29T02:02:59;13.30;14.70
29353;DHT22;16344;50.364;8.944;2023-04-29T02:05:25;13.30;13.10
29353;DHT22;16344;50.364;8.944;2023-04-29T02:07:50;13.40;9.00
29353;DHT22;16344;50.364;8.944;2023-04-29T02:10:16;13.30;11.70
29353;DHT22;16344;50.364;8.944;2023-04-29T02:12:42;13.30;11.00
29353;DHT22;16344;50.364;8.944;2023-04-29T02:15:07;13.30;15.40
29353;DHT22;16344;50.364;8.944;2023-04-29T02:17:33;13.20;13.50
29353;DHT22;16344;50.364;8.944;2023-04-29T02:19:59;13.20;14.10
29353;DHT22;16344;50.364;8.944;2023-04-29T02:22:24;13.20;15.90
29353;DHT22;16344;50.364;8.944;2023-04-29T02:24:50;13.20;15.90
29353;DHT22;16344;50.364;8.944;2023-04-29T02:27:16;13.30;14.80
29353;DHT22;16344;50.364;8.944;2023-04-29T02:29:42;13.30;14.70
29353;DHT22;16344;50.364;8.944;2023-04-29T02:32:07;13.30;14.90
29353;DHT22;16344;50.364;8.944;2023-04-29T02:34:33;13.30;17.00
29353;DHT22;16344;50.364;8.944;2023-04-29T02:36:58;13.30;18.30
29353;DHT22;16344;50.364;8.944;2023-04-29T02:39:24;13.30;15.10
29353;DHT22;16344;50.364;8.944;2023-04-29T02:41:53;13.30;17.70
29353;DHT22;16344;50.364;8.944;2023-04-29T02:44:19;13.20;18.10
29353;DHT22;16344;50.364;8.944;2023-04-29T02:46:44;13.20;19.00
29353;DHT22;16344;50.364;8.944;2023-04-29T02:49:11;13.10;26.30
29353;DHT22;16344;50.364;8.944;2023-04-29T02:51:38;13.10;26.50
29353;DHT22;16344;50.364;8.944;2023-04-29T02:54:03;13.00;27.20
29353;DHT22;16344;50.364;8.944;2023-04-29T02:56:28;13.10;27.20
29353;DHT22;16344;50.364;8.944;2023-04-29T02:58:54;13.10;25.60
29353;DHT22;16344;50.364;8.944;2023-04-29T03:01:19;13.00;24.70
29353;DHT22;16344;50.364;8.944;2023-04-29T03:03:46;13.00;30.50
29353;DHT22;16344;50.364;8.944;2023-04-29T03:06:11;13.00;29.30
29353;DHT22;16344;50.364;8.944;2023-04-29T03:08:37;13.00;30.20
29353;DHT22;16344;50.364;8.944;2023-04-29T03:11:02;12.90;30.00
29353;DHT22;16344;50.364;8.944;2023-04-29T03:13:28;12.90;32.30
29353;DHT22;16344;50.364;8.944;2023-04-29T03:15:53;12.90;36.30
29353;DHT22;16344;50.364;8.944;2023-04-29T03:18:22;12.90;36.40
29353;DHT22;16344;50.364;8.944;2023-04-29T03:20:47;12.90;39.70
29353;DHT22;16344;50.364;8.944;2023-04-29T03:23:12;12.90;38.60
29353;DHT22;16344;50.364;8.944;2023-04-29T03:25:38;12.80;37.60
29353;DHT22;16344;50.364;8.944;2023-04-29T03:28:04;12.80;38.70
29353;DHT22;16344;50.364;8.944;2023-04-29T03:30:31;12.70;43.70
29353;DHT22;16344;50.364;8.944;2023-04-29T03:32:57;12.60;49.70
29353;DHT22;16344;50.364;8.944;2023-04-29T03:35:22;12.60;54.30
29353;DHT22;16344;50.364;8.944;2023-04-29T03:37:48;12.60;56.50
29353;DHT22;16344;50.364;8.944;2023-04-29T03:40:13;12.70;53.20
29353;DHT22;16344;50.364;8.944;2023-04-29T03:42:39;12.70;51.70
29353;DHT22;16344;50.364;8.944;2023-04-29T03:45:05;12.70;49.30
29353;DHT22;16344;50.364;8.944;2023-04-29T03:47:31;12.70;48.40
29353;DHT22;16344;50.364;8.944;2023-04-29T03:49:56;12.70;47.50
29353;DHT22;16344;50.364;8.944;2023-04-29T03:52:22;12.70;45.40
29353;DHT22;16344;50.364;8.944;2023-04-29T03:54:48;12.60;44.70
29353;DHT22;16344;50.364;8.944;2023-04-29T03:57:13;12.60;46.10
29353;DHT22;16344;50.364;8.944;2023-04-29T03:59:39;12.60;45.30
29353;DHT22;16344;50.364;8.944;2023-04-29T04:02:04;12.70;45.30
29353;DHT22;16344;50.364;8.944;2023-04-29T04:04:30;12.60;44.70
29353;DHT22;16344;50.364;8.944;2023-04-29T04:06:55;12.70;46.70
29353;DHT22;16344;50.364;8.944;2023-04-29T04:09:21;12.70;42.60
29353;DHT22;16344;50.364;8.944;2023-04-29T04:11:46;12.70;41.80
29353;DHT22;16344;50.364;8.944;2023-04-29T04:14:12;12.70;40.60
29353;DHT22;16344;50.364;8.944;2023-04-29T04:16:38;12.60;37.90
29353;DHT22;16344;50.364;8.944;2023-04-29T04:19:03;12.60;35.90
29353;DHT22;16344;50.364;8.944;2023-04-29T04:21:29;12.60;36.10
29353;DHT22;16344;50.364;8.944;2023-04-29T04:23:55;12.50;35.20
29353;DHT22;16344;50.364;8.944;2023-04-29T04:26:21;12.50;31.20
29353;DHT22;16344;50.364;8.944;2023-04-29T04:28:47;12.50;26.50
29353;DHT22;16344;50.364;8.944;2023-04-29T04:31:13;12.50;22.20
29353;DHT22;16344;50.364;8.944;2023-04-29T04:33:41;12.60;18.30
29353;DHT22;16344;50.364;8.944;2023-04-29T04:36:07;12.50;9.20
29353;DHT22;16344;50.364;8.944;2023-04-29T04:38:32;12.50;8.70
29353;DHT22;16344;50.364;8.944;2023-04-29T04:40:58;12.50;1.50
29353;DHT22;16344;50.364;8.944;2023-04-29T04:43:24;12.50;1.00
29353;DHT22;16344;50.364;8.944;2023-04-29T04:45:49;12.50;1.00
29353;DHT22;16344;50.364;8.944;2023-04-29T04:48:15;12.50;1.00
29353;DHT22;16344;50.364;8.944;2023-04-29T04:50:40;12.50;1.00
29353;DHT22;16344;50.364;8.944;2023-04-29T04:53:06;12.50;1.00
29353;DHT22;16344;50.364;8.944;2023-04-29T04:55:31;12.70;1.00
29353;DHT22;16344;50.364;8.944;2023-04-29T04:58:00;12.90;1.00
29353;DHT22;16344;50.364;8.944;2023-04-29T05:00:26;13.40;1.00
29353;DHT22;16344;50.364;8.944;2023-04-29T05:02:51;14.40;1.00
29353;DHT22;16344;50.364;8.944;2023-04-29T05:05:17;14.90;99.90
29353;DHT22;16344;50.364;8.944;2023-04-29T05:07:43;15.20;99.90
29353;DHT22;16344;50.364;8.944;2023-04-29T05:10:08;15.30;99.90
29353;DHT22;16344;50.364;8.944;2023-04-29T05:12:34;15.40;99.90
29353;DHT22;16344;50.364;8.944;2023-04-29T05:15:01;15.40;99.90
29353;DHT22;16344;50.364;8.944;2023-04-29T05:17:26;15.40;99.90
29353;DHT22;16344;50.364;8.944;2023-04-29T05:19:52;15.30;99.90
29353;DHT22;16344;50.364;8.944;2023-04-29T05:22:17;15.00;99.90
29353;DHT22;16344;50.364;8.944;2023-04-29T05:24:43;14.80;99.90
29353;DHT22;16344;50.364;8.944;2023-04-29T05:27:08;14.60;99.90
29353;DHT22;16344;50.364;8.944;2023-04-29T05:29:34;14.40;99.90
29353;DHT22;16344;50.364;8.944;2023-04-29T05:31:59;14.20;1.00
29353;DHT22;16344;50.364;8.944;2023-04-29T05:34:25;14.10;1.00
29353;DHT22;16344;50.364;8.944;2023-04-29T05:36:50;14.00;1.00
29353;DHT22;16344;50.364;8.944;2023-04-29T05:39:16;14.00;1.00
29353;DHT22;16344;50.364;8.944;2023-04-29T05:41:42;14.00;1.00
29353;DHT22;16344;50.364;8.944;2023-04-29T05:44:08;13.90;1.00
29353;DHT22;16344;50.364;8.944;2023-04-29T05:46:33;13.80;1.00
29353;DHT22;16344;50.364;8.944;2023-04-29T05:48:59;13.70;1.00
29353;DHT22;16344;50.364;8.944;2023-04-29T05:51:24;13.60;1.00
29353;DHT22;16344;50.364;8.944;2023-04-29T05:53:50;13.60;1.00
29353;DHT22;16344;50.364;8.944;2023-04-29T05:56:16;13.50;1.00
29353;DHT22;16344;50.364;8.944;2023-04-29T05:58:42;13.30;1.00
29353;DHT22;16344;50.364;8.944;2023-04-29T06:01:07;13.30;1.00
29353;DHT22;16344;50.364;8.944;2023-04-29T06:03:33;13.20;1.00
29353;DHT22;16344;50.364;8.944;2023-04-29T06:05:58;13.20;1.00
29353;DHT22;16344;50.364;8.944;2023-04-29T06:08:24;13.10;1.00
29353;DHT22;16344;50.364;8.944;2023-04-29T06:10:51;13.10;1.00
29353;DHT22;16344;50.364;8.944;2023-04-29T06:13:16;13.20;1.00
29353;DHT22;16344;50.364;8.944;2023-04-29T06:15:42;13.20;1.00
29353;DHT22;16344;50.364;8.944;2023-04-29T06:18:08;13.10;1.00
29353;DHT22;16344;50.364;8.944;2023-04-29T06:20:33;13.00;1.00
29353;DHT22;16344;50.364;8.944;2023-04-29T06:22:59;13.00;1.00
29353;DHT22;16344;50.364;8.944;2023-04-29T06:25:24;12.80;1.00
29353;DHT22;16344;50.364;8.944;2023-04-29T06:27:50;12.80;1.00
29353;DHT22;16344;50.364;8.944;2023-04-29T06:30:15;12.80;1.00
29353;DHT22;16344;50.364;8.944;2023-04-29T06:32:41;12.80;1.00
29353;DHT22;16344;50.364;8.944;2023-04-29T06:35:07;12.70;1.00
29353;DHT22;16344;50.364;8.944;2023-04-29T06:37:32;12.70;1.00
29353;DHT22;16344;50.364;8.944;2023-04-29T06:39:58;12.70;1.00
29353;DHT22;16344;50.364;8.944;2023-04-29T06:42:24;12.80;1.00
29353;DHT22;16344;50.364;8.944;2023-04-29T06:44:49;13.00;1.00
29353;DHT22;16344;50.364;8.944;2023-04-29T06:47:15;13.10;1.00
29353;DHT22;16344;50.364;8.944;2023-04-29T06:49:40;13.10;1.00
29353;DHT22;16344;50.364;8.944;2023-04-29T06:52:08;13.10;1.00
29353;DHT22;16344;50.364;8.944;2023-04-29T06:54:33;13.10;1.00
29353;DHT22;16344;50.364;8.944;2023-04-29T06:56:59;13.10;1.00
29353;DHT22;16344;50.364;8.944;2023-04-29T06:59:24;13.10;1.00
29353;DHT22;16344;50.364;8.944;2023-04-29T07:01:50;13.10;1.00
29353;DHT22;16344;50.364;8.944;2023-04-29T07:04:16;13.10;1.00
29353;DHT22;16344;50.364;8.944;2023-04-29T07:06:41;13.10;1.00
29353;DHT22;16344;50.364;8.944;2023-04-29T07:09:13;13.20;1.00
29353;DHT22;16344;50.364;8.944;2023-04-29T07:11:39;13.20;1.00
29353;DHT22;16344;50.364;8.944;2023-04-29T07:14:05;13.20;1.00
29353;DHT22;16344;50.364;8.944;2023-04-29T07:16:31;13.20;1.00
29353;DHT22;16344;50.364;8.944;2023-04-29T07:18:57;13.10;1.00
29353;DHT22;16344;50.364;8.944;2023-04-29T07:21:23;13.20;1.00
29353;DHT22;16344;50.364;8.944;2023-04-29T07:23:48;13.20;1.00
29353;DHT22;16344;50.364;8.944;2023-04-29T07:26:15;13.20;1.00
29353;DHT22;16344;50.364;8.944;2023-04-29T07:28:42;13.30;1.00
29353;DHT22;16344;50.364;8.944;2023-04-29T07:31:08;13.30;1.00
29353;DHT22;16344;50.364;8.944;2023-04-29T07:33:35;13.30;1.00
29353;DHT22;16344;50.364;8.944;2023-04-29T07:36:01;13.40;1.00
29353;DHT22;16344;50.364;8.944;2023-04-29T07:38:28;13.50;1.00
29353;DHT22;16344;50.364;8.944;2023-04-29T07:40:54;13.50;1.00
29353;DHT22;16344;50.364;8.944;2023-04-29T07:43:19;13.60;1.00
29353;DHT22;16344;50.364;8.944;2023-04-29T07:45:46;13.60;1.00
29353;DHT22;16344;50.364;8.944;2023-04-29T07:48:12;13.60;1.00
29353;DHT22;16344;50.364;8.944;2023-04-29T07:50:37;13.50;1.00
29353;DHT22;16344;50.364;8.944;2023-04-29T07:53:03;13.50;1.00
29353;DHT22;16344;50.364;8.944;2023-04-29T07:55:29;13.70;1.00
29353;DHT22;16344;50.364;8.944;2023-04-29T07:57:55;13.70;1.00
29353;DHT22;16344;50.364;8.944;2023-04-29T08:00:21;13.60;1.00
29353;DHT22;16344;50.364;8.944;2023-04-29T08:02:51;13.70;1.00
29353;DHT22;16344;50.364;8.944;2023-04-29T08:05:17;13.60;1.00
29353;DHT22;16344;50.364;8.944;2023-04-29T08:07:44;13.70;1.00
29353;DHT22;16344;50.364;8.944;2023-04-29T08:10:10;13.70;1.00
29353;DHT22;16344;50.364;8.944;2023-04-29T08:12:35;13.80;1.00
29353;DHT22;16344;50.364;8.944;2023-04-29T08:15:01;13.80;1.00
29353;DHT22;16344;50.364;8.944;2023-04-29T08:17:27;13.90;1.00
29353;DHT22;16344;50.364;8.944;2023-04-29T08:19:52;13.90;1.00
29353;DHT22;16344;50.364;8.944;2023-04-29T08:22:18;13.90;1.00
29353;DHT22;16344;50.364;8.944;2023-04-29T08:24:43;13.90;1.00
29353;DHT22;16344;50.364;8.944;2023-04-29T08:27:09;13.90;1.00
29353;DHT22;16344;50.364;8.944;2023-04-29T08:29:35;13.90;1.00
29353;DHT22;16344;50.364;8.944;2023-04-29T08:32:01;14.00;1.00
29353;DHT22;16344;50.364;8.944;2023-04-29T08:34:27;14.00;1.00
29353;DHT22;16344;50.364;8.944;2023-04-29T08:36:52;14.00;1.00
29353;DHT22;16344;50.364;8.944;2023-04-29T08:39:18;14.00;1.00
29353;DHT22;16344;50.364;8.944;2023-04-29T08:41:43;14.00;1.00
29353;DHT22;16344;50.364;8.944;2023-04-29T08:44:14;14.00;1.00
29353;DHT22;16344;50.364;8.944;2023-04-29T08:46:39;14.00;1.00
29353;DHT22;16344;50.364;8.944;2023-04-29T08:49:06;14.10;1.00
29353;DHT22;16344;50.364;8.944;2023-04-29T08:51:31;14.10;1.00
29353;DHT22;16344;50.364;8.944;2023-04-29T08:53:58;14.10;1.00
29353;DHT22;16344;50.364;8.944;2023-04-29T08:56:24;14.20;1.00
29353;DHT22;16344;50.364;8.944;2023-04-29T08:58:52;14.20;1.00
29353;DHT22;16344;50.364;8.944;2023-04-29T09:01:24;14.30;1.00
29353;DHT22;16344;50.364;8.944;2023-04-29T09:04:15;14.30;1.00
29353;DHT22;16344;50.364;8.944;2023-04-29T09:06:46;14.30;1.00
29353;DHT22;16344;50.364;8.944;2023-04-29T09:09:12;14.30;1.00
29353;DHT22;16344;50.364;8.944;2023-04-29T09:11:39;14.40;1.00
29353;DHT22;16344;50.364;8.944;2023-04-29T09:14:05;14.60;1.00
29353;DHT22;16344;50.364;8.944;2023-04-29T09:16:32;14.70;99.90
29353;DHT22;16344;50.364;8.944;2023-04-29T09:18:57;14.90;1.00
29353;DHT22;16344;50.364;8.944;2023-04-29T09:21:25;15.10;1.00
29353;DHT22;16344;50.364;8.944;2023-04-29T09:23:57;15.20;99.90
29353;DHT22;16344;50.364;8.944;2023-04-29T09:26:23;15.40;99.90
29353;DHT22;16344;50.364;8.944;2023-04-29T09:29:12;15.50;99.90
29353;DHT22;16344;50.364;8.944;2023-04-29T09:31:43;15.80;99.90
29353;DHT22;16344;50.364;8.944;2023-04-29T09:34:10;15.80;99.90
29353;DHT22;16344;50.364;8.944;2023-04-29T09:36:46;15.90;99.90
29353;DHT22;16344;50.364;8.944;2023-04-29T09:39:18;16.00;99.90
29353;DHT22;16344;50.364;8.944;2023-04-29T09:44:24;16.10;99.90
29353;DHT22;16344;50.364;8.944;2023-04-29T09:47:04;16.10;99.90
29353;DHT22;16344;50.364;8.944;2023-04-29T09:49:40;16.10;99.90
29353;DHT22;16344;50.364;8.944;2023-04-29T09:52:11;15.90;99.90
29353;DHT22;16344;50.364;8.944;2023-04-29T09:54:39;16.00;99.90
29353;DHT22;16344;50.364;8.944;2023-04-29T09:57:06;15.90;99.90
29353;DHT22;16344;50.364;8.944;2023-04-29T09:59:34;15.90;99.90
29353;DHT22;16344;50.364;8.944;2023-04-29T10:02:01;15.80;99.90
29353;DHT22;16344;50.364;8.944;2023-04-29T10:04:32;15.80;99.90
29353;DHT22;16344;50.364;8.944;2023-04-29T10:06:59;15.70;99.90
29353;DHT22;16344;50.364;8.944;2023-04-29T10:09:27;15.80;99.90
29353;DHT22;16344;50.364;8.944;2023-04-29T10:11:53;15.80;99.90
29353;DHT22;16344;50.364;8.944;2023-04-29T10:14:20;15.80;99.90
29353;DHT22;16344;50.364;8.944;2023-04-29T10:17:01;15.80;99.90
29353;DHT22;16344;50.364;8.944;2023-04-29T10:20:01;15.80;99.90
29353;DHT22;16344;50.364;8.944;2023-04-29T10:22:46;15.80;99.90
29353;DHT22;16344;50.364;8.944;2023-04-29T10:25:16;15.70;99.90
29353;DHT22;16344;50.364;8.944;2023-04-29T10:27:43;15.70;99.90
29353;DHT22;16344;50.364;8.944;2023-04-29T10:30:16;15.60;99.90
29353;DHT22;16344;50.364;8.944;2023-04-29T10:32:43;15.60;99.90
29353;DHT22;16344;50.364;8.944;2023-04-29T10:35:10;15.60;99.90
29353;DHT22;16344;50.364;8.944;2023-04-29T10:37:37;15.70;99.90
29353;DHT22;16344;50.364;8.944;2023-04-29T10:40:16;15.80;99.90
29353;DHT22;16344;50.364;8.944;2023-04-29T10:42:45;15.80;99.90
29353;DHT22;16344;50.364;8.944;2023-04-29T10:45:27;15.80;99.90
29353;DHT22;16344;50.364;8.944;2023-04-29T10:53:04;15.70;99.90
29353;DHT22;16344;50.364;8.944;2023-04-29T10:55:30;15.70;99.90
29353;DHT22;16344;50.364;8.944;2023-04-29T10:57:56;15.70;99.90
29353;DHT22;16344;50.364;8.944;2023-04-29T11:00:30;15.70;99.90
29353;DHT22;16344;50.364;8.944;2023-04-29T11:02:57;15.80;99.90
29353;DHT22;16344;50.364;8.944;2023-04-29T11:05:31;15.80;99.90
29353;DHT22;16344;50.364;8.944;2023-04-29T11:08:41;15.90;99.90
29353;DHT22;16344;50.364;8.944;2023-04-29T11:11:00;16.00;99.90
29353;DHT22;16344;50.364;8.944;2023-04-29T11:13:30;16.10;99.90
29353;DHT22;16344;50.364;8.944;2023-04-29T11:16:09;16.10;99.90
29353;DHT22;16344;50.364;8.944;2023-04-29T11:21:21;16.00;99.90
29353;DHT22;16344;50.364;8.944;2023-04-29T11:23:47;15.80;99.90
29353;DHT22;16344;50.364;8.944;2023-04-29T11:26:18;15.70;99.90
29353;DHT22;16344;50.364;8.944;2023-04-29T11:28:44;15.50;99.90
29353;DHT22;16344;50.364;8.944;2023-04-29T11:31:10;15.50;99.90
29353;DHT22;16344;50.364;8.944;2023-04-29T11:33:36;15.40;99.90
29353;DHT22;16344;50.364;8.944;2023-04-29T11:36:02;15.40;99.90
29353;DHT22;16344;50.364;8.944;2023-04-29T11:38:29;15.40;99.90
29353;DHT22;16344;50.364;8.944;2023-04-29T11:40:55;15.50;99.90
29353;DHT22;16344;50.364;8.944;2023-04-29T11:43:22;15.50;99.90
29353;DHT22;16344;50.364;8.944;2023-04-29T11:45:48;15.60;99.90
29353;DHT22;16344;50.364;8.944;2023-04-29T11:48:24;15.70;99.90
29353;DHT22;16344;50.364;8.944;2023-04-29T11:50:52;15.80;99.90
29353;DHT22;16344;50.364;8.944;2023-04-29T11:53:20;15.80;99.90
29353;DHT22;16344;50.364;8.944;2023-04-29T11:55:46;15.90;99.90
29353;DHT22;16344;50.364;8.944;2023-04-29T11:58:14;16.00;99.90
29353;DHT22;16344;50.364;8.944;2023-04-29T12:00:40;16.10;99.90
29353;DHT22;16344;50.364;8.944;2023-04-29T12:03:19;16.20;99.90
29353;DHT22;16344;50.364;8.944;2023-04-29T12:05:52;16.40;99.90
29353;DHT22;16344;50.364;8.944;2023-04-29T12:08:25;16.50;99.90
29353;DHT22;16344;50.364;8.944;2023-04-29T12:10:54;16.60;99.90
29353;DHT22;16344;50.364;8.944;2023-04-29T12:13:22;16.60;99.90
29353;DHT22;16344;50.364;8.944;2023-04-29T12:15:49;16.70;53.80
29353;DHT22;16344;50.364;8.944;2023-04-29T12:18:17;16.80;49.00
29353;DHT22;16344;50.364;8.944;2023-04-29T12:20:44;17.00;51.00
29353;DHT22;16344;50.364;8.944;2023-04-29T12:23:18;17.00;8.70
29353;DHT22;16344;50.364;8.944;2023-04-29T12:25:58;17.10;14.50
29353;DHT22;16344;50.364;8.944;2023-04-29T12:28:25;17.00;1.00
29353;DHT22;16344;50.364;8.944;2023-04-29T12:30:53;17.10;1.00
29353;DHT22;16344;50.364;8.944;2023-04-29T12:33:23;17.20;1.30
29353;DHT22;16344;50.364;8.944;2023-04-29T12:35:50;17.30;4.60
29353;DHT22;16344;50.364;8.944;2023-04-29T12:38:23;17.30;1.00
29353;DHT22;16344;50.364;8.944;2023-04-29T12:40:52;17.20;1.00
29353;DHT22;16344;50.364;8.944;2023-04-29T12:43:17;17.20;1.70
29353;DHT22;16344;50.364;8.944;2023-04-29T12:45:43;17.20;1.00
29353;DHT22;16344;50.364;8.944;2023-04-29T12:48:10;17.20;1.00
29353;DHT22;16344;50.364;8.944;2023-04-29T12:50:37;17.10;1.00
29353;DHT22;16344;50.364;8.944;2023-04-29T12:53:04;17.10;1.00
29353;DHT22;16344;50.364;8.944;2023-04-29T12:55:32;17.00;1.00
29353;DHT22;16344;50.364;8.944;2023-04-29T12:57:58;16.90;1.00
29353;DHT22;16344;50.364;8.944;2023-04-29T13:00:24;16.70;1.00
29353;DHT22;16344;50.364;8.944;2023-04-29T13:02:50;16.60;1.00
29353;DHT22;16344;50.364;8.944;2023-04-29T13:05:15;16.50;27.40
29353;DHT22;16344;50.364;8.944;2023-04-29T13:07:41;16.40;1.00
29353;DHT22;16344;50.364;8.944;2023-04-29T13:10:07;16.40;1.00
29353;DHT22;16344;50.364;8.944;2023-04-29T13:12:33;16.40;1.00
29353;DHT22;16344;50.364;8.944;2023-04-29T13:14:58;16.40;1.00
29353;DHT22;16344;50.364;8.944;2023-04-29T13:17:24;16.40;14.50
29353;DHT22;16344;50.364;8.944;2023-04-29T13:19:50;16.30;27.20
29353;DHT22;16344;50.364;8.944;2023-04-29T13:22:15;16.40;2.60
29353;DHT22;16344;50.364;8.944;2023-04-29T13:24:41;16.40;3.90
29353;DHT22;16344;50.364;8.944;2023-04-29T13:27:07;16.50;14.00
29353;DHT22;16344;50.364;8.944;2023-04-29T13:29:32;16.50;11.70
29353;DHT22;16344;50.364;8.944;2023-04-29T13:31:58;16.50;19.00
29353;DHT22;16344;50.364;8.944;2023-04-29T13:34:23;16.60;36.20
29353;DHT22;16344;50.364;8.944;2023-04-29T13:36:49;16.70;12.60
29353;DHT22;16344;50.364;8.944;2023-04-29T13:39:14;16.80;19.90
29353;DHT22;16344;50.364;8.944;2023-04-29T13:41:40;16.80;12.60
29353;DHT22;16344;50.364;8.944;2023-04-29T13:44:06;16.60;1.00
29353;DHT22;16344;50.364;8.944;2023-04-29T13:46:31;16.50;1.00
29353;DHT22;16344;50.364;8.944;2023-04-29T13:48:57;16.40;6.80
29353;DHT22;16344;50.364;8.944;2023-04-29T13:51:23;16.30;14.90
29353;DHT22;16344;50.364;8.944;2023-04-29T13:53:48;16.10;23.50
29353;DHT22;16344;50.364;8.944;2023-04-29T13:56:14;16.10;97.50
29353;DHT22;16344;50.364;8.944;2023-04-29T13:58:41;16.00;99.90
29353;DHT22;16344;50.364;8.944;2023-04-29T14:01:07;15.90;99.90
29353;DHT22;16344;50.364;8.944;2023-04-29T14:03:32;15.90;99.90
29353;DHT22;16344;50.364;8.944;2023-04-29T14:05:58;15.90;99.90
29353;DHT22;16344;50.364;8.944;2023-04-29T14:08:23;16.10;99.90
29353;DHT22;16344;50.364;8.944;2023-04-29T14:10:49;16.10;99.90
29353;DHT22;16344;50.364;8.944;2023-04-29T14:13:14;16.10;99.90
29353;DHT22;16344;50.364;8.944;2023-04-29T14:15:41;16.20;99.80
29353;DHT22;16344;50.364;8.944;2023-04-29T14:18:07;16.30;99.90
29353;DHT22;16344;50.364;8.944;2023-04-29T14:20:34;16.30;83.80
29353;DHT22;16344;50.364;8.944;2023-04-29T14:22:59;16.40;58.40
29353;DHT22;16344;50.364;8.944;2023-04-29T14:25:25;16.30;46.30
29353;DHT22;16344;50.364;8.944;2023-04-29T14:27:50;16.30;99.90
29353;DHT22;16344;50.364;8.944;2023-04-29T14:30:16;16.30;99.90
29353;DHT22;16344;50.364;8.944;2023-04-29T14:32:41;16.30;99.90
29353;DHT22;16344;50.364;8.944;2023-04-29T14:35:07;16.30;81.80
29353;DHT22;16344;50.364;8.944;2023-04-29T14:37:33;16.30;99.90
29353;DHT22;16344;50.364;8.944;2023-04-29T14:39:58;16.30;81.50
29353;DHT22;16344;50.364;8.944;2023-04-29T14:42:24;16.10;65.00
29353;DHT22;16344;50.364;8.944;2023-04-29T14:44:49;16.00;99.90
29353;DHT22;16344;50.364;8.944;2023-04-29T14:47:15;15.90;99.90
29353;DHT22;16344;50.364;8.944;2023-04-29T14:49:41;15.90;99.90
29353;DHT22;16344;50.364;8.944;2023-04-29T14:52:07;15.80;99.90
29353;DHT22;16344;50.364;8.944;2023-04-29T14:54:32;15.70;99.90
29353;DHT22;16344;50.364;8.944;2023-04-29T14:56:58;15.70;99.90
29353;DHT22;16344;50.364;8.944;2023-04-29T14:59:23;15.60;94.90
29353;DHT22;16344;50.364;8.944;2023-04-29T15:01:49;15.60;99.90
29353;DHT22;16344;50.364;8.944;2023-04-29T15:04:14;15.50;95.60
29353;DHT22;16344;50.364;8.944;2023-04-29T15:06:40;15.40;99.90
29353;DHT22;16344;50.364;8.944;2023-04-29T15:09:05;15.40;99.90
29353;DHT22;16344;50.364;8.944;2023-04-29T15:11:31;15.20;95.50
29353;DHT22;16344;50.364;8.944;2023-04-29T15:13:57;15.20;99.90
29353;DHT22;16344;50.364;8.944;2023-04-29T15:16:22;15.20;99.90
29353;DHT22;16344;50.364;8.944;2023-04-29T15:18:48;15.00;99.90
29353;DHT22;16344;50.364;8.944;2023-04-29T15:21:13;15.00;99.90
29353;DHT22;16344;50.364;8.944;2023-04-29T15:23:39;15.00;99.90
29353;DHT22;16344;50.364;8.944;2023-04-29T15:26:05;14.90;99.90
29353;DHT22;16344;50.364;8.944;2023-04-29T15:28:31;14.90;99.90
29353;DHT22;16344;50.364;8.944;2023-04-29T15:30:57;15.00;99.90
29353;DHT22;16344;50.364;8.944;2023-04-29T15:33:24;15.00;99.90
29353;DHT22;16344;50.364;8.944;2023-04-29T15:35:49;15.10;99.90
29353;DHT22;16344;50.364;8.944;2023-04-29T15:38:15;15.20;99.90
29353;DHT22;16344;50.364;8.944;2023-04-29T15:40:41;15.10;99.90
29353;DHT22;16344;50.364;8.944;2023-04-29T15:43:06;15.20;99.90
29353;DHT22;16344;50.364;8.944;2023-04-29T15:45:32;15.30;99.90
29353;DHT22;16344;50.364;8.944;2023-04-29T15:47:57;15.30;99.90
29353;DHT22;16344;50.364;8.944;2023-04-29T15:50:22;15.20;99.90
29353;DHT22;16344;50.364;8.944;2023-04-29T15:52:48;15.20;99.90
29353;DHT22;16344;50.364;8.944;2023-04-29T15:55:16;15.10;99.90